createdAt,value
2023-05-22T00:00:23.823Z,96
2023-05-22T00:00:54.223Z,96
2023-05-22T00:01:25.237Z,96
2023-05-22T00:01:57.179Z,96
2023-05-22T00:02:27.177Z,96
2023-05-22T00:03:00.887Z,96
2023-05-22T00:03:29.294Z,96
2023-05-22T00:04:00.100Z,96
2023-05-22T00:04:31.256Z,96
2023-05-22T00:05:02.514Z,96
2023-05-22T00:05:33.113Z,96
2023-05-22T00:06:04.194Z,96
2023-05-22T00:06:35.131Z,96
2023-05-22T00:07:06.195Z,96
2023-05-22T00:07:37.215Z,96
2023-05-22T00:08:08.255Z,96
2023-05-22T00:08:39.204Z,96
2023-05-22T00:09:10.208Z,96
2023-05-22T00:09:41.344Z,96
2023-05-22T00:10:12.540Z,96
2023-05-22T00:10:43.053Z,96
2023-05-22T00:11:14.485Z,96
2023-05-22T00:11:45.284Z,96
2023-05-22T00:12:16.396Z,96
2023-05-22T00:12:47.738Z,96
2023-05-22T00:13:18.464Z,96
2023-05-22T00:13:49.156Z,96
2023-05-22T00:14:20.187Z,96
2023-05-22T00:14:51.530Z,96
2023-05-22T00:15:22.632Z,96
2023-05-22T00:15:53.201Z,96
2023-05-22T00:16:24.159Z,96
2023-05-22T00:16:55.169Z,96
2023-05-22T00:17:26.297Z,96
2023-05-22T00:17:57.259Z,96
2023-05-22T00:18:28.207Z,96
2023-05-22T00:18:59.400Z,96
2023-05-22T00:19:30.350Z,97
2023-05-22T00:20:01.256Z,97
2023-05-22T00:20:32.128Z,97
2023-05-22T00:21:03.048Z,97
2023-05-22T00:21:34.291Z,97
2023-05-22T00:22:05.383Z,97
2023-05-22T00:22:36.404Z,97
2023-05-22T00:23:07.154Z,97
2023-05-22T00:23:38.447Z,97
2023-05-22T00:24:09.329Z,97
2023-05-22T00:24:40.250Z,97
2023-05-22T00:25:11.594Z,97
2023-05-22T00:25:42.216Z,97
2023-05-22T00:26:13.054Z,97
2023-05-22T00:26:44.198Z,97
2023-05-22T00:27:15.210Z,97
2023-05-22T00:27:46.171Z,97
2023-05-22T00:28:17.577Z,97
2023-05-22T00:28:48.469Z,97
2023-05-22T00:29:19.244Z,97
2023-05-22T00:29:50.380Z,97
2023-05-22T00:30:22.109Z,97
2023-05-22T00:30:52.455Z,97
2023-05-22T00:31:23.154Z,97
2023-05-22T00:31:54.198Z,97
2023-05-22T00:32:25.170Z,97
2023-05-22T00:32:56.407Z,97
2023-05-22T00:33:29.043Z,97
2023-05-22T00:33:58.201Z,97
2023-05-22T00:34:31.117Z,97
2023-05-22T00:35:00.600Z,97
2023-05-22T00:35:31.971Z,97
2023-05-22T00:36:02.805Z,97
2023-05-22T00:36:33.530Z,97
2023-05-22T00:37:04.530Z,97
2023-05-22T00:37:35.558Z,97
2023-05-22T00:38:06.496Z,97
2023-05-22T00:38:37.206Z,97
2023-05-22T00:39:08.298Z,97
2023-05-22T00:39:39.291Z,97
2023-05-22T00:40:11.178Z,97
2023-05-22T00:40:41.445Z,97
2023-05-22T00:41:12.489Z,97
2023-05-22T00:41:43.142Z,97
2023-05-22T00:42:14.290Z,97
2023-05-22T00:42:45.276Z,97
2023-05-22T00:43:16.224Z,97
2023-05-22T00:43:47.287Z,97
2023-05-22T00:44:18.342Z,97
2023-05-22T00:44:49.272Z,97
2023-05-22T00:45:21.351Z,97
2023-05-22T00:45:51.237Z,97
2023-05-22T00:46:22.804Z,97
2023-05-22T00:46:53.327Z,97
2023-05-22T00:47:24.409Z,97
2023-05-22T00:47:55.300Z,97
2023-05-22T00:48:26.606Z,97
2023-05-22T00:48:57.832Z,97
2023-05-22T00:49:28.288Z,97
2023-05-22T00:49:59.473Z,97
2023-05-22T00:50:31.063Z,97
2023-05-22T00:51:01.613Z,97
2023-05-22T00:51:32.296Z,97
2023-05-22T00:52:03.299Z,97
2023-05-22T00:52:34.957Z,97
2023-05-22T00:53:05.273Z,97
2023-05-22T00:53:36.384Z,97
2023-05-22T00:54:07.793Z,97
2023-05-22T00:54:38.555Z,97
2023-05-22T00:55:08.994Z,97
2023-05-22T00:55:39.770Z,97
2023-05-22T00:56:10.758Z,97
2023-05-22T00:56:41.937Z,97
2023-05-22T00:57:12.934Z,97
2023-05-22T00:57:43.985Z,97
2023-05-22T00:58:14.822Z,97
2023-05-22T00:58:46.052Z,97
2023-05-22T00:59:17.001Z,97
2023-05-22T00:59:48.073Z,97
2023-05-22T01:00:19.548Z,97
2023-05-22T01:00:49.866Z,97
2023-05-22T01:01:21.045Z,97
2023-05-22T01:01:51.843Z,97
2023-05-22T01:02:22.782Z,97
2023-05-22T01:02:54.058Z,97
2023-05-22T01:03:25.206Z,97
2023-05-22T01:03:56.016Z,97
2023-05-22T01:04:26.873Z,97
2023-05-22T01:05:00.125Z,97
2023-05-22T01:05:29.103Z,97
2023-05-22T01:06:00.658Z,97
2023-05-22T01:06:31.291Z,97
2023-05-22T01:07:03.326Z,97
2023-05-22T01:07:33.354Z,97
2023-05-22T01:08:04.886Z,97
2023-05-22T01:08:35.335Z,97
2023-05-22T01:09:06.770Z,97
2023-05-22T01:09:37.362Z,97
2023-05-22T01:10:08.587Z,97
2023-05-22T01:10:39.435Z,97
2023-05-22T01:11:10.289Z,97
2023-05-22T01:11:41.427Z,97
2023-05-22T01:12:12.693Z,97
2023-05-22T01:12:44.113Z,97
2023-05-22T01:13:14.596Z,97
2023-05-22T01:13:45.757Z,97
2023-05-22T01:14:16.382Z,97
2023-05-22T01:14:47.427Z,97
2023-05-22T01:15:18.959Z,97
2023-05-22T01:15:49.776Z,97
2023-05-22T01:16:19.976Z,97
2023-05-22T01:16:51.223Z,97
2023-05-22T01:17:21.864Z,97
2023-05-22T01:17:53.388Z,97
2023-05-22T01:18:24.385Z,97
2023-05-22T01:18:54.929Z,97
2023-05-22T01:19:26.355Z,97
2023-05-22T01:19:56.885Z,97
2023-05-22T01:20:28.333Z,97
2023-05-22T01:20:58.867Z,97
2023-05-22T01:21:29.982Z,97
2023-05-22T01:22:00.966Z,97
2023-05-22T01:22:32.049Z,97
2023-05-22T01:23:03.038Z,97
2023-05-22T01:23:34.055Z,97
2023-05-22T01:24:04.956Z,97
2023-05-22T01:24:35.940Z,97
2023-05-22T01:25:07.130Z,97
2023-05-22T01:25:37.982Z,97
2023-05-22T01:26:08.965Z,97
2023-05-22T01:26:40.245Z,97
2023-05-22T01:27:11.050Z,97
2023-05-22T01:27:42.085Z,97
2023-05-22T01:28:13.529Z,97
2023-05-22T01:28:44.192Z,97
2023-05-22T01:29:15.388Z,99
2023-05-22T01:29:46.790Z,99
2023-05-22T01:30:18.311Z,99
2023-05-22T01:30:48.436Z,99
2023-05-22T01:31:19.401Z,99
2023-05-22T01:31:50.592Z,99
2023-05-22T01:32:21.669Z,99
2023-05-22T01:32:52.649Z,99
2023-05-22T01:33:23.611Z,99
2023-05-22T01:33:54.625Z,99
2023-05-22T01:34:25.429Z,99
2023-05-22T01:34:56.649Z,99
2023-05-22T01:35:28.331Z,99
2023-05-22T01:35:58.434Z,99
2023-05-22T01:36:31.293Z,99
2023-05-22T01:37:00.585Z,99
2023-05-22T01:37:33.680Z,99
2023-05-22T01:38:02.497Z,99
2023-05-22T01:38:33.865Z,99
2023-05-22T01:39:04.670Z,99
2023-05-22T01:39:35.153Z,99
2023-05-22T01:40:06.781Z,99
2023-05-22T01:40:37.123Z,99
2023-05-22T01:41:08.164Z,99
2023-05-22T01:41:39.193Z,99
2023-05-22T01:42:09.966Z,99
2023-05-22T01:42:41.528Z,99
2023-05-22T01:43:12.341Z,99
2023-05-22T01:43:43.383Z,99
2023-05-22T01:44:13.968Z,99
2023-05-22T01:44:45.311Z,99
2023-05-22T01:45:16.574Z,99
2023-05-22T01:45:47.459Z,99
2023-05-22T01:46:18.075Z,99
2023-05-22T01:46:48.991Z,99
2023-05-22T01:47:19.983Z,99
2023-05-22T01:47:51.251Z,99
2023-05-22T01:48:22.359Z,99
2023-05-22T01:48:52.946Z,99
2023-05-22T01:49:23.975Z,99
2023-05-22T01:49:55.323Z,99
2023-05-22T01:50:26.518Z,99
2023-05-22T01:50:57.012Z,99
2023-05-22T01:51:27.956Z,99
2023-05-22T01:51:59.076Z,99
2023-05-22T01:52:30.472Z,99
2023-05-22T01:53:01.099Z,99
2023-05-22T01:53:32.050Z,99
2023-05-22T01:54:02.972Z,99
2023-05-22T01:54:34.144Z,99
2023-05-22T01:55:05.233Z,99
2023-05-22T01:55:36.007Z,99
2023-05-22T01:56:07.029Z,99
2023-05-22T01:56:38.757Z,99
2023-05-22T01:57:09.395Z,99
2023-05-22T01:57:40.249Z,99
2023-05-22T01:58:11.072Z,99
2023-05-22T01:58:42.357Z,99
2023-05-22T01:59:13.027Z,99
2023-05-22T01:59:44.014Z,99
2023-05-22T02:00:16.124Z,99
2023-05-22T02:00:46.066Z,99
2023-05-22T02:01:17.058Z,99
2023-05-22T02:01:48.092Z,99
2023-05-22T02:02:19.101Z,99
2023-05-22T02:02:50.721Z,99
2023-05-22T02:03:21.154Z,99
2023-05-22T02:03:52.049Z,99
2023-05-22T02:04:23.040Z,99
2023-05-22T02:04:54.251Z,99
2023-05-22T02:05:25.724Z,99
2023-05-22T02:05:56.138Z,99
2023-05-22T02:06:27.038Z,99
2023-05-22T02:06:58.049Z,99
2023-05-22T02:07:29.295Z,99
2023-05-22T02:08:01.292Z,99
2023-05-22T02:08:31.380Z,99
2023-05-22T02:09:04.363Z,99
2023-05-22T02:09:33.470Z,99
2023-05-22T02:10:04.308Z,99
2023-05-22T02:10:35.082Z,99
2023-05-22T02:11:06.307Z,99
2023-05-22T02:11:37.080Z,99
2023-05-22T02:12:08.072Z,99
2023-05-22T02:12:39.095Z,99
2023-05-22T02:13:10.412Z,99
2023-05-22T02:13:41.146Z,99
2023-05-22T02:14:12.522Z,99
2023-05-22T02:14:43.227Z,99
2023-05-22T02:15:14.891Z,99
2023-05-22T02:15:45.378Z,99
2023-05-22T02:16:16.209Z,99
2023-05-22T02:16:47.376Z,99
2023-05-22T02:17:18.112Z,99
2023-05-22T02:17:49.553Z,99
2023-05-22T02:18:20.385Z,99
2023-05-22T02:18:51.180Z,99
2023-05-22T02:19:22.109Z,99
2023-05-22T02:19:53.451Z,99
2023-05-22T02:20:24.535Z,99
2023-05-22T02:20:55.193Z,99
2023-05-22T02:21:26.411Z,99
2023-05-22T02:21:57.187Z,99
2023-05-22T02:22:28.091Z,99
2023-05-22T02:22:59.225Z,99
2023-05-22T02:23:31.229Z,99
2023-05-22T02:24:01.280Z,99
2023-05-22T02:24:32.265Z,99
2023-05-22T02:25:03.873Z,99
2023-05-22T02:25:34.692Z,99
2023-05-22T02:26:05.096Z,99
2023-05-22T02:26:36.267Z,99
2023-05-22T02:27:07.482Z,99
2023-05-22T02:27:38.508Z,99
2023-05-22T02:28:09.166Z,99
2023-05-22T02:28:40.313Z,99
2023-05-22T02:29:11.113Z,99
2023-05-22T02:29:42.104Z,99
2023-05-22T02:30:14.563Z,99
2023-05-22T02:30:44.505Z,99
2023-05-22T02:31:15.153Z,99
2023-05-22T02:31:46.375Z,99
2023-05-22T02:32:17.094Z,99
2023-05-22T02:32:48.313Z,99
2023-05-22T02:33:19.333Z,99
2023-05-22T02:33:50.449Z,99
2023-05-22T02:34:21.393Z,99
2023-05-22T02:34:54.682Z,99
2023-05-22T02:35:23.602Z,99
2023-05-22T02:35:54.138Z,99
2023-05-22T02:36:25.142Z,99
2023-05-22T02:36:56.103Z,99
2023-05-22T02:37:27.593Z,99
2023-05-22T02:37:58.143Z,99
2023-05-22T02:38:29.133Z,99
2023-05-22T02:39:00.155Z,99
2023-05-22T02:39:32.218Z,99
2023-05-22T02:40:02.757Z,99
2023-05-22T02:40:35.014Z,99
2023-05-22T02:41:04.154Z,99
2023-05-22T02:41:36.327Z,99
2023-05-22T02:42:06.124Z,99
2023-05-22T02:42:37.148Z,99
2023-05-22T02:43:08.198Z,99
2023-05-22T02:43:39.244Z,99
2023-05-22T02:44:10.220Z,99
2023-05-22T02:44:41.523Z,99
2023-05-22T02:45:12.933Z,99
2023-05-22T02:45:43.161Z,99
2023-05-22T02:46:14.211Z,99
2023-05-22T02:46:45.897Z,99
2023-05-22T02:47:16.336Z,99
2023-05-22T02:47:47.213Z,99
2023-05-22T02:48:18.552Z,99
2023-05-22T02:48:49.534Z,99
2023-05-22T02:49:20.145Z,99
2023-05-22T02:49:51.740Z,99
2023-05-22T02:50:23.068Z,99
2023-05-22T02:50:53.452Z,99
2023-05-22T02:51:24.177Z,99
2023-05-22T02:51:55.548Z,99
2023-05-22T02:52:26.286Z,99
2023-05-22T02:52:57.197Z,99
2023-05-22T02:53:28.461Z,99
2023-05-22T02:53:59.205Z,99
2023-05-22T02:54:30.526Z,99
2023-05-22T02:55:01.918Z,99
2023-05-22T02:55:32.204Z,99
2023-05-22T02:56:03.176Z,99
2023-05-22T02:56:34.202Z,99
2023-05-22T02:57:05.214Z,99
2023-05-22T02:57:36.355Z,99
2023-05-22T02:58:07.185Z,99
2023-05-22T02:58:38.178Z,99
2023-05-22T02:59:09.194Z,99
2023-05-22T02:59:40.215Z,99
2023-05-22T03:00:11.971Z,99
2023-05-22T03:00:42.272Z,99
2023-05-22T03:01:13.221Z,99
2023-05-22T03:01:44.278Z,99
2023-05-22T03:02:15.182Z,99
2023-05-22T03:02:46.257Z,99
2023-05-22T03:03:17.294Z,99
2023-05-22T03:03:48.681Z,99
2023-05-22T03:04:19.409Z,99
2023-05-22T03:04:51.076Z,99
2023-05-22T03:05:21.699Z,99
2023-05-22T03:05:52.762Z,99
2023-05-22T03:06:23.375Z,99
2023-05-22T03:06:54.215Z,99
2023-05-22T03:07:25.449Z,99
2023-05-22T03:07:56.205Z,99
2023-05-22T03:08:27.500Z,99
2023-05-22T03:08:58.215Z,99
2023-05-22T03:09:29.361Z,99
2023-05-22T03:10:01.059Z,99
2023-05-22T03:10:31.341Z,99
2023-05-22T03:11:04.215Z,99
2023-05-22T03:11:33.454Z,99
2023-05-22T03:12:06.313Z,99
2023-05-22T03:12:35.984Z,99
2023-05-22T03:13:07.180Z,99
2023-05-22T03:13:38.167Z,99
2023-05-22T03:14:09.014Z,99
2023-05-22T03:14:39.822Z,99
2023-05-22T03:15:11.942Z,99
2023-05-22T03:15:41.720Z,99
2023-05-22T03:16:12.768Z,99
2023-05-22T03:16:43.857Z,99
2023-05-22T03:17:14.760Z,99
2023-05-22T03:17:45.796Z,99
2023-05-22T03:18:21.637Z,99
2023-05-22T03:18:48.757Z,99
2023-05-22T03:19:19.165Z,99
2023-05-22T03:19:49.856Z,99
2023-05-22T03:20:21.394Z,99
2023-05-22T03:20:51.744Z,99
2023-05-22T03:21:23.451Z,99
2023-05-22T03:21:53.256Z,99
2023-05-22T03:22:24.643Z,99
2023-05-22T03:22:55.563Z,99
2023-05-22T03:23:26.833Z,99
2023-05-22T03:23:57.318Z,99
2023-05-22T03:24:28.548Z,99
2023-05-22T03:24:59.524Z,99
2023-05-22T03:25:30.967Z,99
2023-05-22T03:26:01.509Z,99
2023-05-22T03:26:32.581Z,99
2023-05-22T03:27:03.445Z,99
2023-05-22T03:27:34.692Z,99
2023-05-22T03:28:05.289Z,99
2023-05-22T03:28:36.334Z,99
2023-05-22T03:29:07.665Z,99
2023-05-22T03:29:38.450Z,99
2023-05-22T03:30:10.368Z,99
2023-05-22T03:30:40.597Z,99
2023-05-22T03:31:11.949Z,99
2023-05-22T03:31:43.245Z,99
2023-05-22T03:32:13.867Z,99
2023-05-22T03:32:45.310Z,99
2023-05-22T03:33:15.967Z,99
2023-05-22T03:33:47.298Z,99
2023-05-22T03:34:17.828Z,99
2023-05-22T03:34:48.957Z,99
2023-05-22T03:35:21.037Z,99
2023-05-22T03:35:50.892Z,99
2023-05-22T03:36:22.389Z,99
2023-05-22T03:36:52.938Z,99
2023-05-22T03:37:23.947Z,99
2023-05-22T03:37:54.895Z,99
2023-05-22T03:38:26.303Z,99
2023-05-22T03:38:56.892Z,99
2023-05-22T03:39:28.197Z,99
2023-05-22T03:39:59.293Z,99
2023-05-22T03:40:30.368Z,99
2023-05-22T03:41:01.286Z,99
2023-05-22T03:41:32.284Z,99
2023-05-22T03:42:03.169Z,99
2023-05-22T03:42:35.783Z,99
2023-05-22T03:43:04.943Z,99
2023-05-22T03:43:37.315Z,99
2023-05-22T03:44:06.933Z,99
2023-05-22T03:44:38.375Z,99
2023-05-22T03:45:09.788Z,99
2023-05-22T03:45:40.048Z,99
2023-05-22T03:46:11.384Z,99
2023-05-22T03:46:42.037Z,99
2023-05-22T03:47:12.998Z,99
2023-05-22T03:47:44.028Z,99
2023-05-22T03:48:14.863Z,99
2023-05-22T03:48:46.261Z,99
2023-05-22T03:49:16.787Z,99
2023-05-22T03:49:47.372Z,99
2023-05-22T03:50:19.148Z,99
2023-05-22T03:50:49.661Z,99
2023-05-22T03:51:20.675Z,99
2023-05-22T03:51:51.658Z,99
2023-05-22T03:52:22.384Z,99
2023-05-22T03:52:53.701Z,99
2023-05-22T03:53:24.380Z,99
2023-05-22T03:53:55.428Z,99
2023-05-22T03:54:26.728Z,99
2023-05-22T03:54:57.899Z,99
2023-05-22T03:55:28.697Z,99
2023-05-22T03:55:59.937Z,99
2023-05-22T03:56:30.386Z,99
2023-05-22T03:57:01.451Z,99
2023-05-22T03:57:32.505Z,99
2023-05-22T03:58:03.455Z,99
2023-05-22T03:58:34.466Z,99
2023-05-22T03:59:05.631Z,99
2023-05-22T03:59:36.596Z,99
2023-05-22T04:00:08.233Z,99
2023-05-22T04:00:39.252Z,99
2023-05-22T04:01:10.555Z,99
2023-05-22T04:01:40.898Z,99
2023-05-22T04:02:11.593Z,99
2023-05-22T04:02:42.547Z,99
2023-05-22T04:03:13.517Z,99
2023-05-22T04:03:44.465Z,99
2023-05-22T04:04:15.437Z,99
2023-05-22T04:04:46.614Z,99
2023-05-22T04:05:18.248Z,99
2023-05-22T04:05:48.943Z,99
2023-05-22T04:06:20.354Z,99
2023-05-22T04:06:51.568Z,99
2023-05-22T04:07:21.972Z,99
2023-05-22T04:07:53.007Z,99
2023-05-22T04:08:24.030Z,99
2023-05-22T04:08:55.220Z,99
2023-05-22T04:09:26.216Z,99
2023-05-22T04:09:57.361Z,99
2023-05-22T04:10:28.705Z,99
2023-05-22T04:10:59.579Z,99
2023-05-22T04:11:30.506Z,99
2023-05-22T04:12:01.196Z,99
2023-05-22T04:12:32.544Z,99
2023-05-22T04:13:02.975Z,99
2023-05-22T04:13:33.957Z,99
2023-05-22T04:14:07.047Z,99
2023-05-22T04:14:36.398Z,99
2023-05-22T04:15:08.367Z,99
2023-05-22T04:15:37.505Z,99
2023-05-22T04:16:08.562Z,99
2023-05-22T04:16:39.491Z,99
2023-05-22T04:17:10.601Z,99
2023-05-22T04:17:41.728Z,99
2023-05-22T04:18:12.577Z,99
2023-05-22T04:18:43.556Z,99
2023-05-22T04:19:14.632Z,99
2023-05-22T04:19:45.644Z,99
2023-05-22T04:20:17.072Z,99
2023-05-22T04:20:47.654Z,99
2023-05-22T04:21:18.755Z,99
2023-05-22T04:21:49.655Z,99
2023-05-22T04:22:20.480Z,99
2023-05-22T04:22:51.969Z,99
2023-05-22T04:23:22.485Z,99
2023-05-22T04:23:53.495Z,99
2023-05-22T04:24:24.536Z,99
2023-05-22T04:24:55.714Z,99
2023-05-22T04:25:27.211Z,99
2023-05-22T04:25:57.516Z,99
2023-05-22T04:26:28.551Z,99
2023-05-22T04:26:59.926Z,99
2023-05-22T04:27:31.112Z,99
2023-05-22T04:28:01.526Z,99
2023-05-22T04:28:32.716Z,99
2023-05-22T04:29:03.490Z,99
2023-05-22T04:29:34.508Z,99
2023-05-22T04:30:06.410Z,99
2023-05-22T04:30:36.636Z,99
2023-05-22T04:31:07.891Z,99
2023-05-22T04:31:38.838Z,99
2023-05-22T04:32:09.933Z,99
2023-05-22T04:32:40.906Z,99
2023-05-22T04:33:12.229Z,99
2023-05-22T04:33:42.776Z,99
2023-05-22T04:34:13.525Z,99
2023-05-22T04:34:44.936Z,99
2023-05-22T04:35:15.797Z,99
2023-05-22T04:35:46.530Z,99
2023-05-22T04:36:17.561Z,99
2023-05-22T04:36:48.529Z,99
2023-05-22T04:37:19.548Z,99
2023-05-22T04:37:50.755Z,99
2023-05-22T04:38:22.027Z,99
2023-05-22T04:38:52.825Z,99
2023-05-22T04:39:24.055Z,99
2023-05-22T04:39:55.497Z,99
2023-05-22T04:40:26.906Z,99
2023-05-22T04:40:57.065Z,99
2023-05-22T04:41:28.069Z,99
2023-05-22T04:41:59.111Z,99
2023-05-22T04:42:30.581Z,99
2023-05-22T04:43:01.122Z,99
2023-05-22T04:43:32.173Z,99
2023-05-22T04:44:03.036Z,99
2023-05-22T04:44:34.494Z,99
2023-05-22T04:45:05.889Z,99
2023-05-22T04:45:37.948Z,99
2023-05-22T04:46:07.516Z,99
2023-05-22T04:46:39.367Z,99
2023-05-22T04:47:09.258Z,99
2023-05-22T04:47:40.125Z,99
2023-05-22T04:48:11.257Z,99
2023-05-22T04:48:42.044Z,99
2023-05-22T04:49:13.114Z,99
2023-05-22T04:49:44.206Z,99
2023-05-22T04:50:15.731Z,99
2023-05-22T04:50:46.125Z,99
2023-05-22T04:51:17.365Z,99
2023-05-22T04:51:48.171Z,99
2023-05-22T04:52:19.253Z,99
2023-05-22T04:52:50.415Z,99
2023-05-22T04:53:22.207Z,99
2023-05-22T04:53:52.530Z,99
2023-05-22T04:54:23.527Z,99
2023-05-22T04:54:54.279Z,99
2023-05-22T04:55:25.497Z,99
2023-05-22T04:55:56.439Z,99
2023-05-22T04:56:35.425Z,99
2023-05-22T04:56:58.061Z,99
2023-05-22T04:57:29.650Z,99
2023-05-22T04:58:00.579Z,99
2023-05-22T04:58:31.532Z,99
2023-05-22T04:59:02.221Z,99
2023-05-22T04:59:33.167Z,99
2023-05-22T05:00:05.040Z,99
2023-05-22T05:00:35.796Z,99
2023-05-22T05:01:06.187Z,99
2023-05-22T05:01:37.559Z,99
2023-05-22T05:02:08.537Z,99
2023-05-22T05:02:39.552Z,99
2023-05-22T05:03:10.744Z,99
2023-05-22T05:03:41.473Z,99
2023-05-22T05:04:12.514Z,99
2023-05-22T05:04:43.203Z,99
2023-05-22T05:05:14.783Z,99
2023-05-22T05:05:46.177Z,99
2023-05-22T05:06:16.205Z,99
2023-05-22T05:06:47.317Z,99
2023-05-22T05:07:18.400Z,99
2023-05-22T05:07:50.036Z,99
2023-05-22T05:08:19.656Z,99
2023-05-22T05:08:50.655Z,99
2023-05-22T05:09:21.634Z,99
2023-05-22T05:09:52.645Z,99
2023-05-22T05:10:24.411Z,99
2023-05-22T05:10:54.885Z,99
2023-05-22T05:11:26.187Z,99
2023-05-22T05:11:56.624Z,99
2023-05-22T05:12:27.852Z,99
2023-05-22T05:12:58.939Z,99
2023-05-22T05:13:29.648Z,99
2023-05-22T05:14:00.911Z,99
2023-05-22T05:14:31.702Z,99
2023-05-22T05:15:03.259Z,99
2023-05-22T05:15:34.232Z,99
2023-05-22T05:16:05.546Z,99
2023-05-22T05:16:36.644Z,99
2023-05-22T05:17:09.003Z,99
2023-05-22T05:17:38.425Z,99
2023-05-22T05:18:11.121Z,99
2023-05-22T05:18:40.571Z,99
2023-05-22T05:19:12.024Z,99
2023-05-22T05:19:42.676Z,99
2023-05-22T05:20:14.011Z,99
2023-05-22T05:20:44.358Z,99
2023-05-22T05:21:15.395Z,99
2023-05-22T05:21:46.728Z,99
2023-05-22T05:22:17.248Z,99
2023-05-22T05:22:48.217Z,99
2023-05-22T05:23:19.255Z,99
2023-05-22T05:23:50.313Z,99
2023-05-22T05:24:21.347Z,99
2023-05-22T05:24:52.222Z,99
2023-05-22T05:25:24.175Z,99
2023-05-22T05:25:54.187Z,99
2023-05-22T05:26:25.679Z,99
2023-05-22T05:26:56.302Z,99
2023-05-22T05:27:27.583Z,99
2023-05-22T05:27:58.275Z,99
2023-05-22T05:28:29.499Z,99
2023-05-22T05:29:00.417Z,99
2023-05-22T05:29:31.247Z,99
2023-05-22T05:30:02.753Z,99
2023-05-22T05:30:33.554Z,99
2023-05-22T05:31:04.424Z,99
2023-05-22T05:31:36.095Z,99
2023-05-22T05:32:06.455Z,99
2023-05-22T05:32:37.433Z,99
2023-05-22T05:33:08.378Z,99
2023-05-22T05:33:39.320Z,99
2023-05-22T05:34:10.546Z,99
2023-05-22T05:34:41.665Z,99
2023-05-22T05:35:13.140Z,99
2023-05-22T05:35:43.322Z,99
2023-05-22T05:36:14.245Z,99
2023-05-22T05:36:45.263Z,99
2023-05-22T05:37:16.364Z,98
2023-05-22T05:37:47.431Z,99
2023-05-22T05:38:18.433Z,98
2023-05-22T05:38:49.823Z,98
2023-05-22T05:39:20.476Z,98
2023-05-22T05:39:51.500Z,98
2023-05-22T05:40:22.749Z,98
2023-05-22T05:40:53.672Z,97
2023-05-22T05:41:24.330Z,97
2023-05-22T05:41:55.482Z,97
2023-05-22T05:42:26.341Z,97
2023-05-22T05:42:57.609Z,97
2023-05-22T05:43:28.731Z,97
2023-05-22T05:43:59.577Z,97
2023-05-22T05:44:30.456Z,97
2023-05-22T05:45:02.044Z,97
2023-05-22T05:45:32.404Z,97
2023-05-22T05:46:03.754Z,96
2023-05-22T05:46:34.517Z,96
2023-05-22T05:47:05.823Z,96
2023-05-22T05:47:36.752Z,96
2023-05-22T05:48:07.435Z,96
2023-05-22T05:48:39.513Z,95
2023-05-22T05:49:10.250Z,96
2023-05-22T05:49:40.653Z,95
2023-05-22T05:50:11.980Z,95
2023-05-22T05:50:42.499Z,95
2023-05-22T05:51:13.540Z,95
2023-05-22T05:51:44.412Z,95
2023-05-22T05:52:15.428Z,95
2023-05-22T05:52:46.355Z,95
2023-05-22T05:53:17.478Z,94
2023-05-22T05:53:48.497Z,95
2023-05-22T05:54:19.674Z,94
2023-05-22T05:54:50.478Z,94
2023-05-22T05:55:22.313Z,94
2023-05-22T05:55:52.774Z,94
2023-05-22T05:56:23.622Z,94
2023-05-22T05:56:54.420Z,94
2023-05-22T05:57:26.064Z,94
2023-05-22T05:57:56.383Z,93
2023-05-22T05:58:27.551Z,92
2023-05-22T05:58:58.564Z,93
2023-05-22T05:59:29.636Z,93
2023-05-22T06:00:01.354Z,93
2023-05-22T06:00:31.693Z,92
2023-05-22T06:01:02.327Z,92
2023-05-22T06:01:33.682Z,92
2023-05-22T06:02:04.485Z,91
2023-05-22T06:02:35.449Z,91
2023-05-22T06:03:06.887Z,92
2023-05-22T06:03:37.677Z,92
2023-05-22T06:04:08.474Z,92
2023-05-22T06:04:39.404Z,93
2023-05-22T06:05:11.590Z,92
2023-05-22T06:05:41.747Z,91
2023-05-22T06:06:12.459Z,92
2023-05-22T06:06:43.483Z,92
2023-05-22T06:07:14.630Z,92
2023-05-22T06:07:45.435Z,91
2023-05-22T06:08:16.879Z,92
2023-05-22T06:08:47.658Z,92
2023-05-22T06:09:18.596Z,92
2023-05-22T06:09:49.581Z,91
2023-05-22T06:10:21.304Z,91
2023-05-22T06:10:51.812Z,91
2023-05-22T06:11:22.785Z,91
2023-05-22T06:11:53.450Z,91
2023-05-22T06:12:24.457Z,90
2023-05-22T06:12:55.701Z,90
2023-05-22T06:13:26.704Z,91
2023-05-22T06:13:57.511Z,91
2023-05-22T06:14:28.860Z,92
2023-05-22T06:14:59.794Z,90
2023-05-22T06:15:31.508Z,90
2023-05-22T06:16:04.261Z,90
2023-05-22T06:16:32.674Z,90
2023-05-22T06:17:03.500Z,89
2023-05-22T06:17:34.732Z,89
2023-05-22T06:18:05.628Z,89
2023-05-22T06:18:36.634Z,89
2023-05-22T06:19:07.858Z,90
2023-05-22T06:19:38.514Z,89
2023-05-22T06:20:11.004Z,89
2023-05-22T06:20:40.650Z,89
2023-05-22T06:21:12.234Z,90
2023-05-22T06:21:42.572Z,88
2023-05-22T06:22:13.507Z,88
2023-05-22T06:22:44.617Z,89
2023-05-22T06:23:15.591Z,89
2023-05-22T06:23:46.624Z,87
2023-05-22T06:24:17.603Z,87
2023-05-22T06:24:48.699Z,88
2023-05-22T06:25:20.330Z,88
2023-05-22T06:25:50.704Z,88
2023-05-22T06:26:22.269Z,88
2023-05-22T06:26:52.510Z,88
2023-05-22T06:27:24.177Z,87
2023-05-22T06:27:54.833Z,87
2023-05-22T06:28:25.993Z,86
2023-05-22T06:28:56.513Z,86
2023-05-22T06:29:27.570Z,86
2023-05-22T06:29:58.704Z,85
2023-05-22T06:30:39.443Z,85
2023-05-22T06:31:00.533Z,86
2023-05-22T06:31:31.658Z,86
2023-05-22T06:32:02.671Z,86
2023-05-22T06:32:34.769Z,86
2023-05-22T06:33:05.058Z,86
2023-05-22T06:33:35.778Z,85
2023-05-22T06:34:06.964Z,86
2023-05-22T06:34:37.761Z,86
2023-05-22T06:35:09.074Z,85
2023-05-22T06:35:39.553Z,87
2023-05-22T06:36:10.572Z,86
2023-05-22T06:36:41.792Z,86
2023-05-22T06:37:12.590Z,86
2023-05-22T06:37:43.670Z,84
2023-05-22T06:38:14.820Z,85
2023-05-22T06:38:45.810Z,86
2023-05-22T06:39:16.540Z,85
2023-05-22T06:39:49.086Z,85
2023-05-22T06:40:19.367Z,85
2023-05-22T06:40:49.597Z,83
2023-05-22T06:41:20.668Z,84
2023-05-22T06:41:51.684Z,84
2023-05-22T06:42:22.771Z,83
2023-05-22T06:42:53.822Z,83
2023-05-22T06:43:25.047Z,84
2023-05-22T06:43:56.070Z,83
2023-05-22T06:44:27.052Z,83
2023-05-22T06:44:57.576Z,83
2023-05-22T06:45:29.611Z,84
2023-05-22T06:46:00.081Z,82
2023-05-22T06:46:30.749Z,82
2023-05-22T06:47:01.571Z,84
2023-05-22T06:47:32.810Z,82
2023-05-22T06:48:03.911Z,82
2023-05-22T06:48:34.710Z,83
2023-05-22T06:49:05.784Z,83
2023-05-22T06:49:36.884Z,83
2023-05-22T06:50:08.082Z,82
2023-05-22T06:50:38.971Z,82
2023-05-22T06:51:09.628Z,82
2023-05-22T06:51:41.747Z,83
2023-05-22T06:52:11.990Z,82
2023-05-22T06:52:43.122Z,81
2023-05-22T06:53:13.523Z,83
2023-05-22T06:53:44.586Z,81
2023-05-22T06:54:16.205Z,81
2023-05-22T06:54:47.036Z,81
2023-05-22T06:55:18.038Z,81
2023-05-22T06:55:48.738Z,83
2023-05-22T06:56:19.601Z,83
2023-05-22T06:56:50.947Z,85
2023-05-22T06:57:22.412Z,83
2023-05-22T06:57:53.184Z,85
2023-05-22T06:58:23.623Z,85
2023-05-22T06:58:54.646Z,84
2023-05-22T06:59:25.601Z,84
2023-05-22T06:59:56.593Z,85
2023-05-22T07:00:28.574Z,83
2023-05-22T07:00:58.920Z,84
2023-05-22T07:01:29.990Z,82
2023-05-22T07:02:00.962Z,84
2023-05-22T07:02:32.224Z,84
2023-05-22T07:03:03.195Z,84
2023-05-22T07:03:33.749Z,84
2023-05-22T07:04:04.652Z,84
2023-05-22T07:04:35.791Z,84
2023-05-22T07:05:07.141Z,84
2023-05-22T07:05:37.711Z,82
2023-05-22T07:06:09.045Z,83
2023-05-22T07:06:40.014Z,83
2023-05-22T07:07:11.030Z,84
2023-05-22T07:07:42.007Z,81
2023-05-22T07:08:13.308Z,85
2023-05-22T07:08:43.779Z,85
2023-05-22T07:09:14.902Z,85
2023-05-22T07:09:45.984Z,81
2023-05-22T07:10:17.488Z,80
2023-05-22T07:10:47.776Z,84
2023-05-22T07:11:18.652Z,84
2023-05-22T07:11:49.695Z,82
2023-05-22T07:12:20.680Z,82
2023-05-22T07:12:51.823Z,80
2023-05-22T07:13:22.684Z,80
2023-05-22T07:13:53.734Z,81
2023-05-22T07:14:25.429Z,79
2023-05-22T07:14:55.681Z,80
2023-05-22T07:15:27.438Z,80
2023-05-22T07:15:57.836Z,79
2023-05-22T07:16:28.700Z,83
2023-05-22T07:17:00.212Z,83
2023-05-22T07:17:30.712Z,81
2023-05-22T07:18:02.248Z,81
2023-05-22T07:18:32.897Z,80
2023-05-22T07:19:03.797Z,83
2023-05-22T07:19:35.179Z,85
2023-05-22T07:20:06.219Z,83
2023-05-22T07:20:37.107Z,83
2023-05-22T07:21:07.857Z,83
2023-05-22T07:21:38.931Z,80
2023-05-22T07:22:09.933Z,80